createdAt,value
2022-11-23T00:00:32.622Z,99213.75
2022-11-23T00:03:00.911Z,99221.66
2022-11-23T00:05:29.375Z,99225.38
2022-11-23T00:07:57.079Z,99224.22
2022-11-23T00:10:27.504Z,99229.31
2022-11-23T00:12:54.895Z,99229.56
2022-11-23T00:15:22.509Z,99243.31
2022-11-23T00:17:49.932Z,99242.88
2022-11-23T00:20:17.346Z,99254.34
2022-11-23T00:22:45.371Z,99252.31
2022-11-23T00:25:13.395Z,99251.50
2022-11-23T00:27:40.748Z,99253.22
2022-11-23T00:30:10.711Z,99249.59
2022-11-23T00:32:38.241Z,99261.69
2022-11-23T00:35:07.948Z,99269.66
2022-11-23T00:37:35.363Z,99262.69
2022-11-23T00:40:08.861Z,99260.75
2022-11-23T00:42:38.183Z,99255.47
2022-11-23T00:45:06.265Z,99261.69
2022-11-23T00:47:36.756Z,99269.00
2022-11-23T00:50:06.784Z,99261.56
2022-11-23T00:52:34.285Z,99268.31
2022-11-23T00:55:04.337Z,99274.09
2022-11-23T00:57:33.931Z,99267.03
2022-11-23T01:00:01.463Z,99267.59
2022-11-23T01:02:30.364Z,99273.31
2022-11-23T01:04:57.758Z,99268.03
2022-11-23T01:07:25.179Z,99275.28
2022-11-23T01:09:52.571Z,99273.47
2022-11-23T01:12:19.859Z,99278.06
2022-11-23T01:14:48.163Z,99284.13
2022-11-23T01:17:15.552Z,99286.41
2022-11-23T01:19:42.954Z,99288.91
2022-11-23T01:22:11.294Z,99293.59
2022-11-23T01:24:38.669Z,99294.06
2022-11-23T01:27:09.536Z,99301.53
2022-11-23T01:29:36.898Z,99307.97
2022-11-23T01:32:04.445Z,99315.16
2022-11-23T01:34:31.824Z,99317.59
2022-11-23T01:36:59.842Z,99318.97
2022-11-23T01:39:28.797Z,99321.75
2022-11-23T01:41:56.282Z,99314.97
2022-11-23T01:44:32.281Z,99327.50
2022-11-23T01:47:02.190Z,99335.03
2022-11-23T01:49:49.576Z,99340.47
2022-11-23T01:52:24.586Z,99340.00
2022-11-23T01:54:55.670Z,99345.81
2022-11-23T01:57:29.866Z,99344.94
2022-11-23T01:59:58.097Z,99358.13
2022-11-23T02:02:28.208Z,99357.19
2022-11-23T02:04:59.080Z,99362.47
2022-11-23T02:07:26.616Z,99372.63
2022-11-23T02:09:54.322Z,99377.28
2022-11-23T02:12:21.619Z,99368.88
2022-11-23T02:14:49.258Z,99362.53
2022-11-23T02:17:19.487Z,99378.22
2022-11-23T02:20:15.967Z,99380.13
2022-11-23T02:23:04.633Z,99383.00
2022-11-23T02:25:38.500Z,99386.06
2022-11-23T02:28:06.979Z,99389.41
2022-11-23T02:33:25.268Z,99402.13
2022-11-23T02:35:55.198Z,99391.03
2022-11-23T02:38:26.908Z,99399.25
2022-11-23T02:40:56.617Z,99400.06
2022-11-23T02:43:24.705Z,99401.19
2022-11-23T02:46:01.908Z,99392.13
2022-11-23T02:48:29.205Z,99401.50
2022-11-23T02:50:56.513Z,99406.47
2022-11-23T02:53:24.800Z,99408.34
2022-11-23T02:55:54.462Z,99411.72
2022-11-23T02:58:21.805Z,99409.81
2022-11-23T03:00:50.567Z,99404.84
2022-11-23T03:03:20.350Z,99406.63
2022-11-23T03:05:47.701Z,99413.81
2022-11-23T03:08:15.104Z,99418.44
2022-11-23T03:10:43.129Z,99414.50
2022-11-23T03:13:11.456Z,99420.81
2022-11-23T03:15:40.591Z,99416.06
2022-11-23T03:18:09.973Z,99420.53
2022-11-23T03:20:37.325Z,99419.56
2022-11-23T03:23:05.585Z,99419.91
2022-11-23T03:25:33.408Z,99430.88
2022-11-23T03:28:00.829Z,99428.00
2022-11-23T03:30:28.430Z,99431.50
2022-11-23T03:32:55.792Z,99426.13
2022-11-23T03:35:23.947Z,99428.66
2022-11-23T03:38:10.507Z,99425.34
2022-11-23T03:40:38.288Z,99430.13
2022-11-23T03:43:26.094Z,99422.31
2022-11-23T03:45:53.614Z,99427.72
2022-11-23T03:48:21.278Z,99423.59
2022-11-23T03:50:49.638Z,99427.88
2022-11-23T03:53:17.042Z,99431.06
2022-11-23T03:55:46.833Z,99425.97
2022-11-23T03:58:15.313Z,99426.13
2022-11-23T04:00:43.250Z,99431.84
2022-11-23T04:03:13.054Z,99429.47
2022-11-23T04:06:12.786Z,99432.81
2022-11-23T04:09:06.197Z,99429.66
2022-11-23T04:11:51.989Z,99430.09
2022-11-23T04:14:20.232Z,99440.75
2022-11-23T04:16:48.528Z,99421.22
2022-11-23T04:19:16.565Z,99423.91
2022-11-23T04:21:43.983Z,99439.47
2022-11-23T04:24:11.428Z,99444.88
2022-11-23T04:26:40.776Z,99448.53
2022-11-23T04:29:10.012Z,99439.94
2022-11-23T04:31:41.144Z,99437.88
2022-11-23T04:34:13.412Z,99438.69
2022-11-23T04:36:40.769Z,99432.66
2022-11-23T04:39:12.541Z,99425.84
2022-11-23T04:42:06.398Z,99435.03
2022-11-23T04:44:34.696Z,99449.16
2022-11-23T04:47:05.281Z,99447.09
2022-11-23T04:49:36.399Z,99457.25
2022-11-23T04:52:05.644Z,99458.69
2022-11-23T04:54:38.171Z,99466.31
2022-11-23T04:57:09.478Z,99462.03
2022-11-23T04:59:38.438Z,99461.38
2022-11-23T05:02:06.177Z,99470.13
2022-11-23T05:04:56.740Z,99470.56
2022-11-23T05:07:29.133Z,99471.06
2022-11-23T05:10:00.447Z,99474.41
2022-11-23T05:12:27.898Z,99482.31
2022-11-23T05:14:55.341Z,99488.69
2022-11-23T05:17:29.469Z,99477.38
2022-11-23T05:19:56.852Z,99478.69
2022-11-23T05:22:25.248Z,99480.59
2022-11-23T05:24:53.492Z,99475.19
2022-11-23T05:27:24.124Z,99478.34
2022-11-23T05:29:51.885Z,99467.09
2022-11-23T05:32:19.468Z,99473.28
2022-11-23T05:34:46.853Z,99469.94
2022-11-23T05:37:16.248Z,99477.72
2022-11-23T05:39:52.252Z,99467.25
2022-11-23T05:42:20.560Z,99466.59
2022-11-23T05:44:48.733Z,99469.00
2022-11-23T05:47:23.370Z,99469.78
2022-11-23T05:49:51.071Z,99468.63
2022-11-23T05:52:24.499Z,99474.03
2022-11-23T05:54:52.070Z,99483.88
2022-11-23T05:57:22.492Z,99491.81
2022-11-23T05:59:51.056Z,99493.38
2022-11-23T06:02:22.684Z,99491.16
2022-11-23T06:04:56.186Z,99487.03
2022-11-23T06:07:35.491Z,99489.72
2022-11-23T06:10:10.328Z,99485.63
2022-11-23T06:12:40.823Z,99488.59
2022-11-23T06:15:13.107Z,99502.09
2022-11-23T06:17:40.804Z,99510.03
2022-11-23T06:20:12.799Z,99513.81
2022-11-23T06:22:44.318Z,99512.22
2022-11-23T06:25:11.796Z,99504.00
2022-11-23T06:27:41.456Z,99516.84
2022-11-23T06:30:20.341Z,99518.28
2022-11-23T06:32:48.595Z,99519.38
2022-11-23T06:35:16.981Z,99515.91
2022-11-23T06:37:45.188Z,99525.13
2022-11-23T06:40:13.249Z,99533.50
2022-11-23T06:42:42.948Z,99534.34
2022-11-23T06:45:21.296Z,99550.06
2022-11-23T06:47:54.887Z,99552.59
2022-11-23T06:50:23.068Z,99546.72
2022-11-23T06:52:55.362Z,99553.22
2022-11-23T06:55:29.081Z,99567.53
2022-11-23T06:57:57.421Z,99565.97
2022-11-23T07:00:25.028Z,99559.34
2022-11-23T07:02:54.516Z,99562.63
2022-11-23T07:05:27.452Z,99563.13
2022-11-23T07:07:55.032Z,99566.09
2022-11-23T07:10:26.877Z,99581.03
2022-11-23T07:13:06.406Z,99596.19
2022-11-23T07:15:34.994Z,99595.88
2022-11-23T07:18:02.609Z,99606.69
2022-11-23T07:20:30.005Z,99600.81
2022-11-23T07:23:08.442Z,99612.13
2022-11-23T07:25:37.649Z,99612.59
2022-11-23T07:28:06.641Z,99613.22
2022-11-23T07:30:35.000Z,99618.31
2022-11-23T07:33:05.019Z,99617.53
2022-11-23T07:35:36.007Z,99622.78
2022-11-23T07:38:04.163Z,99629.78
2022-11-23T07:40:31.868Z,99631.53
2022-11-23T07:43:01.072Z,99627.06
2022-11-23T07:45:29.184Z,99636.00
2022-11-23T07:48:02.092Z,99634.38
2022-11-23T07:50:32.277Z,99632.13
2022-11-23T07:53:02.093Z,99638.50
2022-11-23T07:55:30.765Z,99643.13
2022-11-23T07:57:58.496Z,99646.44
2022-11-23T08:00:27.627Z,99655.19
2022-11-23T08:03:25.692Z,99655.66
2022-11-23T08:05:43.237Z,99654.84
2022-11-23T08:08:10.628Z,99657.38
2022-11-23T08:10:43.615Z,99654.34
2022-11-23T08:13:13.040Z,99661.19
2022-11-23T08:15:50.342Z,99661.50
2022-11-23T08:18:20.986Z,99669.91
2022-11-23T08:20:48.400Z,99668.97
2022-11-23T08:23:15.836Z,99662.72
2022-11-23T08:25:43.272Z,99665.06
2022-11-23T08:28:11.126Z,99666.78
2022-11-23T08:30:39.120Z,99685.09
2022-11-23T08:33:07.931Z,99679.97
2022-11-23T08:35:36.924Z,99680.56
2022-11-23T08:38:05.199Z,99680.38
2022-11-23T08:40:33.645Z,99684.03
2022-11-23T08:43:01.210Z,99686.81
2022-11-23T08:45:28.950Z,99686.50
2022-11-23T08:48:03.988Z,99683.56
2022-11-23T08:50:32.204Z,99687.00
2022-11-23T08:53:00.232Z,99696.81
2022-11-23T08:55:28.389Z,99690.72
2022-11-23T08:57:59.769Z,99695.69
2022-11-23T09:00:28.076Z,99688.63
2022-11-23T09:02:59.039Z,99689.69
2022-11-23T09:05:27.325Z,99689.06
2022-11-23T09:07:55.535Z,99694.59
2022-11-23T09:10:23.162Z,99694.06
2022-11-23T09:12:50.589Z,99694.44
2022-11-23T09:15:18.552Z,99695.59
2022-11-23T09:17:46.123Z,99692.44
2022-11-23T09:20:13.543Z,99706.81
2022-11-23T09:22:53.613Z,99695.50
2022-11-23T09:25:22.456Z,99709.69
2022-11-23T09:27:50.580Z,99703.56
2022-11-23T09:30:20.874Z,99695.88
2022-11-23T09:32:48.285Z,99701.31
2022-11-23T09:35:16.493Z,99692.94
2022-11-23T09:37:43.847Z,99702.44
2022-11-23T09:40:16.563Z,99698.72
2022-11-23T09:43:17.341Z,99702.88
2022-11-23T09:45:51.607Z,99706.50
2022-11-23T09:48:55.604Z,99711.38
2022-11-23T09:51:23.502Z,99697.78
2022-11-23T09:53:59.100Z,99700.28
2022-11-23T09:56:37.468Z,99702.22
2022-11-23T09:59:31.306Z,99702.09
2022-11-23T10:02:00.574Z,99696.66
2022-11-23T10:04:35.581Z,99695.31
2022-11-23T10:07:25.713Z,99692.22
2022-11-23T10:10:32.866Z,99690.03
2022-11-23T10:13:12.240Z,99690.84
2022-11-23T10:15:53.264Z,99689.03
2022-11-23T10:18:31.730Z,99694.09
2022-11-23T10:21:12.825Z,99695.19
2022-11-23T10:23:59.251Z,99689.97
2022-11-23T10:26:37.415Z,99686.53
2022-11-23T10:29:14.536Z,99690.94
2022-11-23T10:31:47.392Z,99683.19
2022-11-23T10:34:19.805Z,99674.38
2022-11-23T10:36:47.172Z,99676.31
2022-11-23T10:39:17.650Z,99674.56
2022-11-23T10:41:46.296Z,99672.94
2022-11-23T10:44:33.711Z,99688.91
2022-11-23T10:47:01.350Z,99676.56
2022-11-23T10:49:37.798Z,99675.94
2022-11-23T10:52:31.638Z,99676.56
2022-11-23T10:55:01.814Z,99676.31
2022-11-23T10:57:43.279Z,99677.88
2022-11-23T11:00:11.553Z,99674.28
2022-11-23T11:02:45.207Z,99674.13
2022-11-23T11:05:15.790Z,99679.56
2022-11-23T11:07:43.426Z,99672.34
2022-11-23T11:10:34.255Z,99674.28
2022-11-23T11:13:01.716Z,99674.22
2022-11-23T11:15:29.109Z,99673.69
2022-11-23T11:17:59.146Z,99670.34
2022-11-23T11:20:35.050Z,99676.16
2022-11-23T11:23:18.312Z,99680.09
2022-11-23T11:25:47.826Z,99666.84
2022-11-23T11:28:20.958Z,99674.38
2022-11-23T11:30:56.124Z,99666.66
2022-11-23T11:33:36.299Z,99669.69
2022-11-23T11:36:06.761Z,99667.84
2022-11-23T11:38:37.466Z,99671.47
2022-11-23T11:41:12.018Z,99657.75
2022-11-23T11:43:48.304Z,99662.91
2022-11-23T11:46:30.151Z,99655.91
2022-11-23T11:49:02.853Z,99665.88
2022-11-23T11:51:49.952Z,99663.53
2022-11-23T11:54:36.047Z,99658.63
2022-11-23T11:57:25.491Z,99647.94
2022-11-23T12:00:01.654Z,99645.03
2022-11-23T12:03:04.159Z,99645.47
2022-11-23T12:05:51.743Z,99654.00
2022-11-23T12:08:44.527Z,99654.31
2022-11-23T12:11:13.160Z,99649.63
2022-11-23T12:13:45.675Z,99655.66
2022-11-23T12:16:31.557Z,99654.78
2022-11-23T12:19:17.726Z,99654.78
2022-11-23T12:21:57.159Z,99662.63
2022-11-23T12:24:41.466Z,99647.66
2022-11-23T12:27:18.000Z,99649.06
2022-11-23T12:30:16.308Z,99643.38
2022-11-23T12:33:21.031Z,99644.03
2022-11-23T12:36:09.777Z,99637.25
2022-11-23T12:39:00.328Z,99645.38
2022-11-23T12:41:47.317Z,99639.34
2022-11-23T12:44:51.852Z,99640.41
2022-11-23T12:47:37.676Z,99633.81
2022-11-23T12:50:25.469Z,99641.38
2022-11-23T12:53:12.238Z,99635.53
2022-11-23T12:56:15.864Z,99643.84
2022-11-23T12:58:46.816Z,99639.00
2022-11-23T13:01:30.798Z,99638.63
2022-11-23T13:04:22.430Z,99637.31
2022-11-23T13:07:27.704Z,99629.78
2022-11-23T13:10:07.558Z,99631.97
2022-11-23T13:13:14.074Z,99635.06
2022-11-23T13:16:04.654Z,99642.09
2022-11-23T13:18:47.278Z,99643.03
2022-11-23T13:21:32.928Z,99645.78
2022-11-23T13:24:00.504Z,99639.13
2022-11-23T13:26:29.543Z,99647.63
2022-11-23T13:28:59.117Z,99649.22
2022-11-23T13:31:30.954Z,99654.25
2022-11-23T13:34:00.876Z,99646.78
2022-11-23T13:37:10.427Z,99651.44
2022-11-23T13:39:58.847Z,99652.59
2022-11-23T13:42:27.714Z,99652.84
2022-11-23T13:45:22.028Z,99647.16
2022-11-23T13:48:41.197Z,99655.94
2022-11-23T13:51:04.615Z,99661.38
2022-11-23T13:53:35.142Z,99648.63
2022-11-23T13:56:35.952Z,99650.56
2022-11-23T13:59:24.645Z,99661.34
2022-11-23T14:02:03.109Z,99659.34
2022-11-23T14:04:51.828Z,99656.88
2022-11-23T14:07:47.048Z,99657.75
2022-11-23T14:10:21.251Z,99664.66
2022-11-23T14:13:05.693Z,99660.41
2022-11-23T14:15:35.867Z,99659.16
2022-11-23T14:18:09.027Z,99668.47
2022-11-23T14:20:54.852Z,99670.53
2022-11-23T14:23:40.546Z,99682.31
2022-11-23T14:26:26.945Z,99669.75
2022-11-23T14:29:19.232Z,99668.38
2022-11-23T14:32:03.814Z,99669.53
2022-11-23T14:34:52.618Z,99677.69
2022-11-23T14:37:41.276Z,99673.28
2022-11-23T14:40:27.543Z,99682.00
2022-11-23T14:42:57.257Z,99681.44
2022-11-23T14:45:29.758Z,99678.50
2022-11-23T14:47:57.281Z,99684.16
2022-11-23T14:50:27.683Z,99677.63
2022-11-23T14:52:58.595Z,99688.38
2022-11-23T14:55:28.716Z,99703.22
2022-11-23T14:58:01.746Z,99696.88
2022-11-23T15:00:29.041Z,99709.34
2022-11-23T15:03:04.556Z,99708.88
2022-11-23T15:05:46.393Z,99700.28
2022-11-23T15:08:36.248Z,99712.97
2022-11-23T15:11:12.486Z,99703.34
2022-11-23T15:13:46.304Z,99715.81
2022-11-23T15:16:15.949Z,99718.53
2022-11-23T15:18:43.785Z,99717.16
2022-11-23T15:21:11.136Z,99718.41
2022-11-23T15:23:50.678Z,99718.06
2022-11-23T15:26:46.625Z,99724.03
2022-11-23T15:29:28.838Z,99734.88
2022-11-23T15:32:22.308Z,99729.34
2022-11-23T15:34:43.821Z,99725.47
2022-11-23T15:37:11.247Z,99729.88
2022-11-23T15:39:39.285Z,99736.97
2022-11-23T15:42:07.173Z,99754.38
2022-11-23T15:44:38.506Z,99749.50
2022-11-23T15:47:07.268Z,99752.09
2022-11-23T15:49:39.528Z,99752.44
2022-11-23T15:52:11.561Z,99755.94
2022-11-23T15:54:39.141Z,99755.16
2022-11-23T15:57:09.667Z,99764.63
2022-11-23T15:59:47.055Z,99763.34
2022-11-23T16:02:18.031Z,99767.66
2022-11-23T16:04:45.839Z,99766.41
2022-11-23T16:07:26.224Z,99768.66
2022-11-23T16:10:25.149Z,99774.91
2022-11-23T16:12:55.223Z,99782.56
2022-11-23T16:15:37.810Z,99784.34
2022-11-23T16:18:28.016Z,99783.75
2022-11-23T16:20:59.145Z,99783.94
2022-11-23T16:23:43.276Z,99782.72
2022-11-23T16:26:12.060Z,99787.66
2022-11-23T16:28:48.955Z,99788.13
2022-11-23T16:31:43.182Z,99789.25
2022-11-23T16:34:15.731Z,99799.22
2022-11-23T16:36:46.306Z,99794.84
2022-11-23T16:39:13.984Z,99797.91
2022-11-23T16:41:43.568Z,99800.53
2022-11-23T16:44:10.937Z,99797.22
2022-11-23T16:46:43.246Z,99797.34
2022-11-23T16:49:22.327Z,99804.56
2022-11-23T16:51:57.065Z,99800.44
2022-11-23T16:54:25.589Z,99798.19
2022-11-23T16:56:53.574Z,99801.84
2022-11-23T16:59:22.842Z,99805.22
2022-11-23T17:01:56.645Z,99798.50
2022-11-23T17:04:25.363Z,99796.81
2022-11-23T17:06:52.769Z,99804.94
2022-11-23T17:09:20.117Z,99792.81
2022-11-23T17:11:50.766Z,99797.91
2022-11-23T17:14:19.795Z,99792.97
2022-11-23T17:16:48.101Z,99799.19
2022-11-23T17:19:16.922Z,99791.84
2022-11-23T17:21:44.669Z,99799.63
2022-11-23T17:24:13.751Z,99793.34
2022-11-23T17:26:52.700Z,99796.25
2022-11-23T17:29:21.058Z,99794.50
2022-11-23T17:31:50.557Z,99808.56
2022-11-23T17:34:18.215Z,99801.09
2022-11-23T17:36:47.274Z,99819.25
2022-11-23T17:39:19.947Z,99808.13
2022-11-23T17:41:48.209Z,99813.38
2022-11-23T17:44:16.574Z,99822.56
2022-11-23T17:46:45.984Z,99826.72
2022-11-23T17:49:17.986Z,99820.72
2022-11-23T17:51:48.003Z,99831.38
2022-11-23T17:54:15.387Z,99839.50
2022-11-23T17:56:43.027Z,99841.59
2022-11-23T17:59:10.464Z,99834.09
2022-11-23T18:01:37.841Z,99842.22
2022-11-23T18:04:05.369Z,99838.88
2022-11-23T18:06:32.797Z,99842.56
2022-11-23T18:09:00.229Z,99853.84
2022-11-23T18:11:28.628Z,99842.56
2022-11-23T18:13:56.152Z,99851.97
2022-11-23T18:16:25.486Z,99856.13
2022-11-23T18:18:53.344Z,99849.41
2022-11-23T18:21:22.722Z,99861.38
2022-11-23T18:23:50.034Z,99862.47
2022-11-23T18:26:23.941Z,99860.75
2022-11-23T18:28:51.632Z,99869.00
2022-11-23T18:31:19.920Z,99876.31
2022-11-23T18:33:47.459Z,99874.28
2022-11-23T18:36:14.919Z,99871.41
2022-11-23T18:38:44.953Z,99883.00
2022-11-23T18:41:18.349Z,99886.03
2022-11-23T18:43:46.177Z,99879.16
2022-11-23T18:46:19.460Z,99880.13
2022-11-23T18:48:48.836Z,99885.38
2022-11-23T18:51:17.980Z,99897.91
2022-11-23T18:53:47.882Z,99910.16
2022-11-23T18:56:15.485Z,99892.66
2022-11-23T18:58:44.408Z,99911.25
2022-11-23T19:01:14.038Z,99918.13
2022-11-23T19:03:42.435Z,99925.91
2022-11-23T19:06:14.382Z,99933.34
2022-11-23T19:08:44.048Z,99933.94
2022-11-23T19:11:17.515Z,99933.94
2022-11-23T19:13:47.330Z,99939.50
2022-11-23T19:16:23.911Z,99939.78
2022-11-23T19:19:00.462Z,99953.53
2022-11-23T19:21:30.287Z,99952.09
2022-11-23T19:23:59.051Z,99963.69
2022-11-23T19:26:28.079Z,99978.72
2022-11-23T19:28:56.234Z,99973.31
2022-11-23T19:31:24.669Z,99981.94
2022-11-23T19:33:52.667Z,99972.66
2022-11-23T19:36:22.285Z,99991.63
2022-11-23T19:38:51.653Z,99995.78
2022-11-23T19:41:19.147Z,99993.53
2022-11-23T19:43:46.578Z,99995.75
2022-11-23T19:46:14.591Z,99991.59
2022-11-23T19:48:42.257Z,100003.25
2022-11-23T19:51:15.475Z,100010.22
2022-11-23T19:53:44.242Z,100003.72
2022-11-23T19:56:15.326Z,100005.63
2022-11-23T19:58:43.262Z,100004.66
2022-11-23T20:01:16.011Z,100010.69
2022-11-23T20:03:48.861Z,100015.59
2022-11-23T20:06:21.827Z,100008.41
2022-11-23T20:08:56.646Z,100023.66
2022-11-23T20:11:25.260Z,100023.53
2022-11-23T20:13:54.160Z,100026.13
2022-11-23T20:16:22.630Z,100017.06
2022-11-23T20:18:57.015Z,100027.88
2022-11-23T20:21:25.610Z,100032.19
2022-11-23T20:24:05.171Z,100042.84
2022-11-23T20:26:36.388Z,100043.47
2022-11-23T20:29:06.033Z,100044.44
2022-11-23T20:31:34.277Z,100043.47
2022-11-23T20:34:03.307Z,100042.06
2022-11-23T20:36:36.123Z,100048.25
2022-11-23T20:39:06.285Z,100045.69
2022-11-23T20:41:35.714Z,100043.00
2022-11-23T20:44:11.999Z,100052.09
2022-11-23T20:49:27.985Z,100062.06
2022-11-23T20:51:55.447Z,100063.06
2022-11-23T20:54:25.756Z,100071.00
2022-11-23T20:56:53.186Z,100068.44
2022-11-23T20:59:20.745Z,100062.75
2022-11-23T21:01:48.324Z,100059.81
2022-11-23T21:04:16.034Z,100061.47
2022-11-23T21:06:43.961Z,100063.94
2022-11-23T21:09:12.194Z,100055.34
2022-11-23T21:11:57.738Z,100062.75
2022-11-23T21:14:28.347Z,100069.09
2022-11-23T21:16:59.001Z,100060.00
2022-11-23T21:19:31.687Z,100059.56
2022-11-23T21:22:02.486Z,100064.50
2022-11-23T21:24:29.996Z,100057.69
2022-11-23T21:26:57.460Z,100052.47
2022-11-23T21:29:24.833Z,100047.56
2022-11-23T21:31:52.312Z,100050.97
2022-11-23T21:34:22.483Z,100046.22
2022-11-23T21:36:50.915Z,100045.34
2022-11-23T21:39:19.366Z,100054.22
2022-11-23T21:41:48.990Z,100046.41
2022-11-23T21:44:17.620Z,100045.44
2022-11-23T21:46:45.331Z,100046.69
2022-11-23T21:49:13.032Z,100059.56
2022-11-23T21:51:42.619Z,100065.28
2022-11-23T21:54:14.222Z,100065.09
2022-11-23T21:56:43.630Z,100067.97
2022-11-23T21:59:12.413Z,100066.41
2022-11-23T22:01:40.563Z,100057.84
2022-11-23T22:04:10.804Z,100061.81
2022-11-23T22:06:39.249Z,100068.19
2022-11-23T22:09:09.576Z,100066.59
2022-11-23T22:11:41.104Z,100067.47
2022-11-23T22:14:11.953Z,100059.69
2022-11-23T22:16:40.941Z,100066.66
2022-11-23T22:19:12.226Z,100068.16
2022-11-23T22:21:41.924Z,100064.31
2022-11-23T22:24:14.539Z,100068.63
2022-11-23T22:26:42.692Z,100082.13
2022-11-23T22:29:10.771Z,100085.19
2022-11-23T22:31:38.272Z,100087.75
2022-11-23T22:34:09.255Z,100098.41
2022-11-23T22:36:36.741Z,100090.50
2022-11-23T22:39:06.521Z,100104.53
2022-11-23T22:41:37.255Z,100111.34
2022-11-23T22:44:07.643Z,100114.97
2022-11-23T22:46:37.233Z,100117.78
2022-11-23T22:49:04.942Z,100118.00
2022-11-23T22:51:33.860Z,100116.81
2022-11-23T22:54:02.583Z,100111.91
2022-11-23T22:56:30.788Z,100110.38
2022-11-23T22:58:58.881Z,100115.78
2022-11-23T23:01:30.156Z,100114.69
2022-11-23T23:04:02.399Z,100117.47
2022-11-23T23:06:34.666Z,100114.19
2022-11-23T23:09:04.539Z,100110.97
2022-11-23T23:11:33.307Z,100106.47
2022-11-23T23:14:00.964Z,100100.09
2022-11-23T23:16:29.097Z,100110.97
2022-11-23T23:18:57.605Z,100107.78
2022-11-23T23:21:26.469Z,100119.66
2022-11-23T23:23:55.904Z,100118.97
2022-11-23T23:26:27.333Z,100120.97
2022-11-23T23:29:00.465Z,100126.78
2022-11-23T23:31:29.917Z,100125.38
2022-11-23T23:33:59.381Z,100133.28
2022-11-23T23:36:26.779Z,100124.41
2022-11-23T23:38:54.298Z,100142.97
2022-11-23T23:41:22.489Z,100147.34
2022-11-23T23:43:50.159Z,100138.88
2022-11-23T23:46:17.910Z,100146.88
2022-11-23T23:48:45.621Z,100145.38
2022-11-23T23:51:20.909Z,100153.06
2022-11-23T23:53:49.016Z,100153.66
2022-11-23T23:56:22.912Z,100154.78
2022-11-23T23:58:50.901Z,100154.28
